sensor_id;sensor_type;location;lat;lon;timestamp;P1;durP1;ratioP1;P2;durP2;ratioP2
23206;SDS011;11773;52.570;13.052;2022-08-01T00:00:19;0.70;;;0.70;;
23206;SDS011;11773;52.570;13.052;2022-08-01T00:02:49;0.70;;;0.70;;
23206;SDS011;11773;52.570;13.052;2022-08-01T00:05:19;1.40;;;1.30;;
23206;SDS011;11773;52.570;13.052;2022-08-01T00:07:48;0.77;;;0.77;;
23206;SDS011;11773;52.570;13.052;2022-08-01T00:10:18;0.87;;;0.87;;
23206;SDS011;11773;52.570;13.052;2022-08-01T00:12:48;0.80;;;0.80;;
23206;SDS011;11773;52.570;13.052;2022-08-01T00:15:18;0.73;;;0.73;;
23206;SDS011;11773;52.570;13.052;2022-08-01T00:17:47;0.80;;;0.80;;
23206;SDS011;11773;52.570;13.052;2022-08-01T00:20:17;0.50;;;0.50;;
23206;SDS011;11773;52.570;13.052;2022-08-01T00:22:46;0.60;;;0.60;;
23206;SDS011;11773;52.570;13.052;2022-08-01T00:25:16;0.70;;;0.70;;
23206;SDS011;11773;52.570;13.052;2022-08-01T00:27:46;0.70;;;0.70;;
23206;SDS011;11773;52.570;13.052;2022-08-01T00:30:15;0.80;;;0.80;;
23206;SDS011;11773;52.570;13.052;2022-08-01T00:32:45;0.97;;;0.87;;
23206;SDS011;11773;52.570;13.052;2022-08-01T00:35:14;0.60;;;0.60;;
23206;SDS011;11773;52.570;13.052;2022-08-01T00:37:44;0.87;;;0.87;;
23206;SDS011;11773;52.570;13.052;2022-08-01T00:40:13;0.70;;;0.70;;
23206;SDS011;11773;52.570;13.052;2022-08-01T00:42:43;0.57;;;0.57;;
23206;SDS011;11773;52.570;13.052;2022-08-01T00:45:12;0.63;;;0.63;;
23206;SDS011;11773;52.570;13.052;2022-08-01T00:47:42;0.47;;;0.47;;
23206;SDS011;11773;52.570;13.052;2022-08-01T00:50:12;0.57;;;0.57;;
23206;SDS011;11773;52.570;13.052;2022-08-01T00:52:41;0.60;;;0.60;;
23206;SDS011;11773;52.570;13.052;2022-08-01T00:55:13;0.70;;;0.70;;
23206;SDS011;11773;52.570;13.052;2022-08-01T00:57:44;0.83;;;0.63;;
23206;SDS011;11773;52.570;13.052;2022-08-01T01:00:16;0.60;;;0.60;;
23206;SDS011;11773;52.570;13.052;2022-08-01T01:02:47;0.57;;;0.57;;
23206;SDS011;11773;52.570;13.052;2022-08-01T01:05:17;0.77;;;0.77;;
23206;SDS011;11773;52.570;13.052;2022-08-01T01:07:52;0.83;;;0.77;;
23206;SDS011;11773;52.570;13.052;2022-08-01T01:10:50;0.80;;;0.80;;
23206;SDS011;11773;52.570;13.052;2022-08-01T01:16:17;0.40;;;0.40;;
23206;SDS011;11773;52.570;13.052;2022-08-01T01:18:56;0.70;;;0.70;;
23206;SDS011;11773;52.570;13.052;2022-08-01T01:21:35;1.23;;;0.63;;
23206;SDS011;11773;52.570;13.052;2022-08-01T01:24:19;0.97;;;0.50;;
23206;SDS011;11773;52.570;13.052;2022-08-01T01:29:58;0.60;;;0.60;;
23206;SDS011;11773;52.570;13.052;2022-08-01T01:35:20;0.60;;;0.60;;
23206;SDS011;11773;52.570;13.052;2022-08-01T01:38:04;0.80;;;0.80;;
23206;SDS011;11773;52.570;13.052;2022-08-01T01:40:36;0.57;;;0.57;;
23206;SDS011;11773;52.570;13.052;2022-08-01T01:43:09;0.53;;;0.53;;
23206;SDS011;11773;52.570;13.052;2022-08-01T01:45:41;0.67;;;0.67;;
23206;SDS011;11773;52.570;13.052;2022-08-01T01:48:18;0.53;;;0.53;;
23206;SDS011;11773;52.570;13.052;2022-08-01T01:50:51;0.60;;;0.60;;
23206;SDS011;11773;52.570;13.052;2022-08-01T01:53:23;0.70;;;0.70;;
23206;SDS011;11773;52.570;13.052;2022-08-01T01:55:57;0.60;;;0.60;;
23206;SDS011;11773;52.570;13.052;2022-08-01T01:58:28;0.63;;;0.63;;
23206;SDS011;11773;52.570;13.052;2022-08-01T02:01:00;0.70;;;0.70;;
23206;SDS011;11773;52.570;13.052;2022-08-01T02:03:34;0.80;;;0.80;;
23206;SDS011;11773;52.570;13.052;2022-08-01T02:06:08;0.67;;;0.67;;
23206;SDS011;11773;52.570;13.052;2022-08-01T02:08:40;0.50;;;0.50;;
23206;SDS011;11773;52.570;13.052;2022-08-01T02:11:12;0.70;;;0.70;;
23206;SDS011;11773;52.570;13.052;2022-08-01T02:13:56;0.67;;;0.67;;
23206;SDS011;11773;52.570;13.052;2022-08-01T02:16:33;0.80;;;0.80;;
23206;SDS011;11773;52.570;13.052;2022-08-01T02:19:04;0.90;;;0.60;;
23206;SDS011;11773;52.570;13.052;2022-08-01T02:21:37;0.57;;;0.57;;
23206;SDS011;11773;52.570;13.052;2022-08-01T02:24:10;0.70;;;0.70;;
23206;SDS011;11773;52.570;13.052;2022-08-01T02:27:23;0.60;;;0.60;;
23206;SDS011;11773;52.570;13.052;2022-08-01T02:29:56;0.70;;;0.70;;
23206;SDS011;11773;52.570;13.052;2022-08-01T02:32:36;0.90;;;0.80;;
23206;SDS011;11773;52.570;13.052;2022-08-01T02:35:13;0.70;;;0.70;;
23206;SDS011;11773;52.570;13.052;2022-08-01T02:37:51;0.90;;;0.90;;
23206;SDS011;11773;52.570;13.052;2022-08-01T02:40:26;0.60;;;0.60;;
23206;SDS011;11773;52.570;13.052;2022-08-01T02:43:00;0.80;;;0.80;;
23206;SDS011;11773;52.570;13.052;2022-08-01T02:45:32;0.80;;;0.80;;
23206;SDS011;11773;52.570;13.052;2022-08-01T02:48:10;0.70;;;0.70;;
23206;SDS011;11773;52.570;13.052;2022-08-01T02:50:45;0.70;;;0.70;;
23206;SDS011;11773;52.570;13.052;2022-08-01T02:53:18;0.60;;;0.60;;
23206;SDS011;11773;52.570;13.052;2022-08-01T02:55:52;0.77;;;0.77;;
23206;SDS011;11773;52.570;13.052;2022-08-01T02:58:25;0.70;;;0.70;;
23206;SDS011;11773;52.570;13.052;2022-08-01T03:00:57;0.83;;;0.83;;
23206;SDS011;11773;52.570;13.052;2022-08-01T03:03:29;0.83;;;0.83;;
23206;SDS011;11773;52.570;13.052;2022-08-01T03:06:00;0.73;;;0.73;;
23206;SDS011;11773;52.570;13.052;2022-08-01T03:08:30;0.83;;;0.83;;
23206;SDS011;11773;52.570;13.052;2022-08-01T03:11:02;0.63;;;0.63;;
23206;SDS011;11773;52.570;13.052;2022-08-01T03:13:35;0.80;;;0.80;;
23206;SDS011;11773;52.570;13.052;2022-08-01T03:16:06;0.60;;;0.60;;
23206;SDS011;11773;52.570;13.052;2022-08-01T03:18:37;0.70;;;0.70;;
23206;SDS011;11773;52.570;13.052;2022-08-01T03:21:11;0.80;;;0.77;;
23206;SDS011;11773;52.570;13.052;2022-08-01T03:23:42;1.27;;;0.77;;
23206;SDS011;11773;52.570;13.052;2022-08-01T03:26:17;0.93;;;0.93;;
23206;SDS011;11773;52.570;13.052;2022-08-01T03:28:48;0.60;;;0.60;;
23206;SDS011;11773;52.570;13.052;2022-08-01T03:31:20;0.80;;;0.80;;
23206;SDS011;11773;52.570;13.052;2022-08-01T03:33:50;1.17;;;1.10;;
23206;SDS011;11773;52.570;13.052;2022-08-01T03:36:24;0.97;;;0.90;;
23206;SDS011;11773;52.570;13.052;2022-08-01T03:38:57;0.50;;;0.50;;
23206;SDS011;11773;52.570;13.052;2022-08-01T03:41:32;0.70;;;0.70;;
23206;SDS011;11773;52.570;13.052;2022-08-01T03:44:05;0.83;;;0.83;;
23206;SDS011;11773;52.570;13.052;2022-08-01T03:46:48;0.70;;;0.70;;
23206;SDS011;11773;52.570;13.052;2022-08-01T03:49:31;1.00;;;1.00;;
23206;SDS011;11773;52.570;13.052;2022-08-01T03:52:05;0.93;;;0.93;;
23206;SDS011;11773;52.570;13.052;2022-08-01T03:54:38;1.50;;;1.40;;
23206;SDS011;11773;52.570;13.052;2022-08-01T03:57:11;1.43;;;1.23;;
23206;SDS011;11773;52.570;13.052;2022-08-01T03:59:44;1.10;;;1.00;;
23206;SDS011;11773;52.570;13.052;2022-08-01T04:02:14;1.40;;;1.30;;
23206;SDS011;11773;52.570;13.052;2022-08-01T04:04:47;1.40;;;1.30;;
23206;SDS011;11773;52.570;13.052;2022-08-01T04:07:30;0.97;;;0.97;;
23206;SDS011;11773;52.570;13.052;2022-08-01T04:10:06;0.90;;;0.90;;
23206;SDS011;11773;52.570;13.052;2022-08-01T04:12:35;0.90;;;0.90;;
23206;SDS011;11773;52.570;13.052;2022-08-01T04:15:05;0.90;;;0.90;;
23206;SDS011;11773;52.570;13.052;2022-08-01T04:17:35;0.77;;;0.77;;
23206;SDS011;11773;52.570;13.052;2022-08-01T04:20:05;1.40;;;1.30;;
23206;SDS011;11773;52.570;13.052;2022-08-01T04:22:35;1.07;;;1.00;;
23206;SDS011;11773;52.570;13.052;2022-08-01T04:25:07;1.73;;;1.63;;
23206;SDS011;11773;52.570;13.052;2022-08-01T04:27:42;0.90;;;0.90;;
23206;SDS011;11773;52.570;13.052;2022-08-01T04:30:22;0.90;;;0.90;;
23206;SDS011;11773;52.570;13.052;2022-08-01T04:32:55;1.70;;;1.60;;
23206;SDS011;11773;52.570;13.052;2022-08-01T04:35:28;1.03;;;1.03;;
23206;SDS011;11773;52.570;13.052;2022-08-01T04:38:01;1.00;;;1.00;;
23206;SDS011;11773;52.570;13.052;2022-08-01T04:40:32;1.30;;;1.20;;
23206;SDS011;11773;52.570;13.052;2022-08-01T04:43:04;0.97;;;0.97;;
23206;SDS011;11773;52.570;13.052;2022-08-01T04:45:34;1.00;;;0.90;;
23206;SDS011;11773;52.570;13.052;2022-08-01T04:48:05;0.80;;;0.80;;
23206;SDS011;11773;52.570;13.052;2022-08-01T04:50:36;0.70;;;0.70;;
23206;SDS011;11773;52.570;13.052;2022-08-01T04:53:13;1.00;;;1.00;;
23206;SDS011;11773;52.570;13.052;2022-08-01T04:55:46;0.77;;;0.77;;
23206;SDS011;11773;52.570;13.052;2022-08-01T04:58:16;1.00;;;1.00;;
23206;SDS011;11773;52.570;13.052;2022-08-01T05:00:46;0.70;;;0.70;;
23206;SDS011;11773;52.570;13.052;2022-08-01T05:03:15;1.90;;;1.43;;
23206;SDS011;11773;52.570;13.052;2022-08-01T05:05:45;1.07;;;1.07;;
23206;SDS011;11773;52.570;13.052;2022-08-01T05:08:15;1.20;;;1.10;;
23206;SDS011;11773;52.570;13.052;2022-08-01T05:10:44;0.90;;;0.90;;
23206;SDS011;11773;52.570;13.052;2022-08-01T05:13:14;1.10;;;1.10;;
23206;SDS011;11773;52.570;13.052;2022-08-01T05:15:43;1.10;;;1.10;;
23206;SDS011;11773;52.570;13.052;2022-08-01T05:18:12;1.53;;;1.10;;
23206;SDS011;11773;52.570;13.052;2022-08-01T05:20:44;1.30;;;1.20;;
23206;SDS011;11773;52.570;13.052;2022-08-01T05:23:14;1.27;;;1.17;;
23206;SDS011;11773;52.570;13.052;2022-08-01T05:25:46;1.43;;;1.33;;
23206;SDS011;11773;52.570;13.052;2022-08-01T05:28:18;1.40;;;1.30;;
23206;SDS011;11773;52.570;13.052;2022-08-01T05:30:47;1.20;;;1.10;;
23206;SDS011;11773;52.570;13.052;2022-08-01T05:33:17;1.80;;;1.40;;
23206;SDS011;11773;52.570;13.052;2022-08-01T05:35:48;1.00;;;1.00;;
23206;SDS011;11773;52.570;13.052;2022-08-01T05:38:18;1.67;;;1.57;;
23206;SDS011;11773;52.570;13.052;2022-08-01T05:40:47;1.10;;;1.10;;
23206;SDS011;11773;52.570;13.052;2022-08-01T05:43:16;1.13;;;1.13;;
23206;SDS011;11773;52.570;13.052;2022-08-01T05:45:48;1.20;;;0.90;;
23206;SDS011;11773;52.570;13.052;2022-08-01T05:48:17;1.63;;;1.53;;
23206;SDS011;11773;52.570;13.052;2022-08-01T05:50:47;1.30;;;1.20;;
23206;SDS011;11773;52.570;13.052;2022-08-01T05:53:19;1.03;;;1.03;;
23206;SDS011;11773;52.570;13.052;2022-08-01T05:55:48;1.10;;;1.00;;
23206;SDS011;11773;52.570;13.052;2022-08-01T05:58:18;1.03;;;1.03;;
23206;SDS011;11773;52.570;13.052;2022-08-01T06:00:47;1.63;;;1.30;;
23206;SDS011;11773;52.570;13.052;2022-08-01T06:03:17;0.90;;;0.90;;
23206;SDS011;11773;52.570;13.052;2022-08-01T06:05:47;0.80;;;0.80;;
23206;SDS011;11773;52.570;13.052;2022-08-01T06:08:16;0.70;;;0.70;;
23206;SDS011;11773;52.570;13.052;2022-08-01T06:10:46;0.80;;;0.80;;
23206;SDS011;11773;52.570;13.052;2022-08-01T06:13:15;0.90;;;0.90;;
23206;SDS011;11773;52.570;13.052;2022-08-01T06:15:46;0.90;;;0.90;;
23206;SDS011;11773;52.570;13.052;2022-08-01T06:18:16;0.70;;;0.70;;
23206;SDS011;11773;52.570;13.052;2022-08-01T06:20:46;0.93;;;0.93;;
23206;SDS011;11773;52.570;13.052;2022-08-01T06:23:15;0.57;;;0.57;;
23206;SDS011;11773;52.570;13.052;2022-08-01T06:25:47;0.53;;;0.53;;
23206;SDS011;11773;52.570;13.052;2022-08-01T06:28:20;0.90;;;0.90;;
23206;SDS011;11773;52.570;13.052;2022-08-01T06:30:50;0.70;;;0.70;;
23206;SDS011;11773;52.570;13.052;2022-08-01T06:33:20;0.63;;;0.60;;
23206;SDS011;11773;52.570;13.052;2022-08-01T06:35:49;0.60;;;0.60;;
23206;SDS011;11773;52.570;13.052;2022-08-01T06:38:19;0.63;;;0.63;;
23206;SDS011;11773;52.570;13.052;2022-08-01T06:40:49;0.60;;;0.60;;
23206;SDS011;11773;52.570;13.052;2022-08-01T06:43:18;1.00;;;1.00;;
23206;SDS011;11773;52.570;13.052;2022-08-01T06:45:48;1.03;;;1.03;;
23206;SDS011;11773;52.570;13.052;2022-08-01T06:48:18;1.53;;;1.40;;
23206;SDS011;11773;52.570;13.052;2022-08-01T06:50:47;0.93;;;0.93;;
23206;SDS011;11773;52.570;13.052;2022-08-01T06:53:18;1.20;;;1.20;;
23206;SDS011;11773;52.570;13.052;2022-08-01T06:55:48;1.00;;;1.00;;
23206;SDS011;11773;52.570;13.052;2022-08-01T06:58:17;1.00;;;1.00;;
23206;SDS011;11773;52.570;13.052;2022-08-01T07:00:49;1.20;;;1.10;;
23206;SDS011;11773;52.570;13.052;2022-08-01T07:03:20;1.27;;;1.17;;
23206;SDS011;11773;52.570;13.052;2022-08-01T07:05:49;0.90;;;0.90;;
23206;SDS011;11773;52.570;13.052;2022-08-01T07:08:19;1.10;;;1.10;;
23206;SDS011;11773;52.570;13.052;2022-08-01T07:10:49;0.90;;;0.90;;
23206;SDS011;11773;52.570;13.052;2022-08-01T07:13:19;1.53;;;1.43;;
23206;SDS011;11773;52.570;13.052;2022-08-01T07:15:51;1.90;;;1.80;;
23206;SDS011;11773;52.570;13.052;2022-08-01T07:18:22;1.47;;;1.40;;
23206;SDS011;11773;52.570;13.052;2022-08-01T07:20:52;1.87;;;1.77;;
23206;SDS011;11773;52.570;13.052;2022-08-01T07:23:22;1.40;;;1.30;;
23206;SDS011;11773;52.570;13.052;2022-08-01T07:25:54;1.37;;;1.27;;
23206;SDS011;11773;52.570;13.052;2022-08-01T07:28:25;1.67;;;1.57;;
23206;SDS011;11773;52.570;13.052;2022-08-01T07:30:55;1.30;;;1.20;;
23206;SDS011;11773;52.570;13.052;2022-08-01T07:33:24;1.63;;;1.53;;
23206;SDS011;11773;52.570;13.052;2022-08-01T07:35:56;1.50;;;1.40;;
23206;SDS011;11773;52.570;13.052;2022-08-01T07:38:25;1.40;;;1.30;;
23206;SDS011;11773;52.570;13.052;2022-08-01T07:40:55;1.10;;;1.10;;
23206;SDS011;11773;52.570;13.052;2022-08-01T07:43:24;1.33;;;1.23;;
23206;SDS011;11773;52.570;13.052;2022-08-01T07:45:54;0.87;;;0.87;;
23206;SDS011;11773;52.570;13.052;2022-08-01T07:48:23;0.80;;;0.80;;
23206;SDS011;11773;52.570;13.052;2022-08-01T07:50:54;1.03;;;1.03;;
23206;SDS011;11773;52.570;13.052;2022-08-01T07:53:24;1.10;;;1.10;;
23206;SDS011;11773;52.570;13.052;2022-08-01T07:55:54;0.83;;;0.83;;
23206;SDS011;11773;52.570;13.052;2022-08-01T07:58:23;1.00;;;1.00;;
23206;SDS011;11773;52.570;13.052;2022-08-01T08:00:53;0.80;;;0.80;;
23206;SDS011;11773;52.570;13.052;2022-08-01T08:03:22;0.77;;;0.77;;
23206;SDS011;11773;52.570;13.052;2022-08-01T08:05:53;0.90;;;0.90;;
23206;SDS011;11773;52.570;13.052;2022-08-01T08:08:25;0.70;;;0.70;;
23206;SDS011;11773;52.570;13.052;2022-08-01T08:10:55;1.00;;;1.00;;
23206;SDS011;11773;52.570;13.052;2022-08-01T08:13:24;0.70;;;0.70;;
23206;SDS011;11773;52.570;13.052;2022-08-01T08:15:54;0.60;;;0.60;;
23206;SDS011;11773;52.570;13.052;2022-08-01T08:18:25;0.50;;;0.50;;
23206;SDS011;11773;52.570;13.052;2022-08-01T08:20:55;0.60;;;0.60;;
23206;SDS011;11773;52.570;13.052;2022-08-01T08:23:26;0.70;;;0.70;;
23206;SDS011;11773;52.570;13.052;2022-08-01T08:26:13;1.10;;;0.80;;
23206;SDS011;11773;52.570;13.052;2022-08-01T08:28:43;0.73;;;0.60;;
23206;SDS011;11773;52.570;13.052;2022-08-01T08:31:13;0.50;;;0.50;;
23206;SDS011;11773;52.570;13.052;2022-08-01T08:33:44;0.80;;;0.80;;
23206;SDS011;11773;52.570;13.052;2022-08-01T08:36:14;0.60;;;0.60;;
23206;SDS011;11773;52.570;13.052;2022-08-01T08:38:44;0.70;;;0.70;;
23206;SDS011;11773;52.570;13.052;2022-08-01T08:41:13;0.90;;;0.90;;
23206;SDS011;11773;52.570;13.052;2022-08-01T08:43:44;0.60;;;0.60;;
23206;SDS011;11773;52.570;13.052;2022-08-01T08:46:14;0.60;;;0.60;;
23206;SDS011;11773;52.570;13.052;2022-08-01T08:48:46;0.60;;;0.60;;
23206;SDS011;11773;52.570;13.052;2022-08-01T08:51:16;0.73;;;0.73;;
23206;SDS011;11773;52.570;13.052;2022-08-01T08:53:48;0.60;;;0.60;;
23206;SDS011;11773;52.570;13.052;2022-08-01T08:56:24;0.60;;;0.60;;
23206;SDS011;11773;52.570;13.052;2022-08-01T08:58:57;0.73;;;0.73;;
23206;SDS011;11773;52.570;13.052;2022-08-01T09:01:27;1.57;;;1.00;;
23206;SDS011;11773;52.570;13.052;2022-08-01T09:03:59;0.60;;;0.60;;
23206;SDS011;11773;52.570;13.052;2022-08-01T09:06:33;0.70;;;0.70;;
23206;SDS011;11773;52.570;13.052;2022-08-01T09:09:03;0.63;;;0.63;;
23206;SDS011;11773;52.570;13.052;2022-08-01T09:11:34;1.03;;;0.93;;
23206;SDS011;11773;52.570;13.052;2022-08-01T09:14:05;0.70;;;0.70;;
23206;SDS011;11773;52.570;13.052;2022-08-01T09:16:43;0.63;;;0.60;;
23206;SDS011;11773;52.570;13.052;2022-08-01T09:19:16;0.60;;;0.60;;
23206;SDS011;11773;52.570;13.052;2022-08-01T09:21:56;0.90;;;0.90;;
23206;SDS011;11773;52.570;13.052;2022-08-01T09:24:30;0.70;;;0.70;;
23206;SDS011;11773;52.570;13.052;2022-08-01T09:27:01;0.60;;;0.60;;
23206;SDS011;11773;52.570;13.052;2022-08-01T09:29:49;0.50;;;0.50;;
23206;SDS011;11773;52.570;13.052;2022-08-01T09:32:23;0.70;;;0.70;;
23206;SDS011;11773;52.570;13.052;2022-08-01T09:34:54;0.50;;;0.50;;
23206;SDS011;11773;52.570;13.052;2022-08-01T09:37:29;0.50;;;0.50;;
23206;SDS011;11773;52.570;13.052;2022-08-01T09:40:02;0.70;;;0.70;;
23206;SDS011;11773;52.570;13.052;2022-08-01T09:42:33;0.60;;;0.60;;
23206;SDS011;11773;52.570;13.052;2022-08-01T09:45:02;0.57;;;0.57;;
23206;SDS011;11773;52.570;13.052;2022-08-01T09:47:39;0.60;;;0.60;;
23206;SDS011;11773;52.570;13.052;2022-08-01T09:50:10;0.70;;;0.70;;
23206;SDS011;11773;52.570;13.052;2022-08-01T09:52:39;0.50;;;0.50;;
23206;SDS011;11773;52.570;13.052;2022-08-01T09:55:09;0.60;;;0.60;;
23206;SDS011;11773;52.570;13.052;2022-08-01T09:57:38;0.70;;;0.70;;
23206;SDS011;11773;52.570;13.052;2022-08-01T10:00:18;0.75;;;0.75;;
23206;SDS011;11773;52.570;13.052;2022-08-01T10:02:45;0.80;;;0.80;;
23206;SDS011;11773;52.570;13.052;2022-08-01T10:05:15;0.47;;;0.47;;
23206;SDS011;11773;52.570;13.052;2022-08-01T10:07:55;0.80;;;0.60;;
23206;SDS011;11773;52.570;13.052;2022-08-01T10:10:31;0.50;;;0.50;;
23206;SDS011;11773;52.570;13.052;2022-08-01T10:13:03;0.40;;;0.40;;
23206;SDS011;11773;52.570;13.052;2022-08-01T10:15:35;0.50;;;0.50;;
23206;SDS011;11773;52.570;13.052;2022-08-01T10:18:05;0.50;;;0.50;;
23206;SDS011;11773;52.570;13.052;2022-08-01T10:20:40;0.50;;;0.37;;
23206;SDS011;11773;52.570;13.052;2022-08-01T10:23:10;0.30;;;0.30;;
23206;SDS011;11773;52.570;13.052;2022-08-01T10:25:42;0.50;;;0.50;;
23206;SDS011;11773;52.570;13.052;2022-08-01T10:28:14;0.40;;;0.40;;
23206;SDS011;11773;52.570;13.052;2022-08-01T10:30:48;0.50;;;0.50;;
23206;SDS011;11773;52.570;13.052;2022-08-01T10:33:21;0.50;;;0.50;;
23206;SDS011;11773;52.570;13.052;2022-08-01T10:35:53;0.50;;;0.50;;
23206;SDS011;11773;52.570;13.052;2022-08-01T10:38:22;0.60;;;0.60;;
23206;SDS011;11773;52.570;13.052;2022-08-01T10:40:52;0.40;;;0.40;;
23206;SDS011;11773;52.570;13.052;2022-08-01T10:43:24;0.30;;;0.30;;
23206;SDS011;11773;52.570;13.052;2022-08-01T10:45:54;0.57;;;0.57;;
23206;SDS011;11773;52.570;13.052;2022-08-01T10:48:29;0.60;;;0.60;;
23206;SDS011;11773;52.570;13.052;2022-08-01T10:51:17;0.70;;;0.70;;
23206;SDS011;11773;52.570;13.052;2022-08-01T10:53:51;0.40;;;0.40;;
23206;SDS011;11773;52.570;13.052;2022-08-01T10:56:38;0.30;;;0.30;;
23206;SDS011;11773;52.570;13.052;2022-08-01T10:59:01;0.80;;;0.60;;
23206;SDS011;11773;52.570;13.052;2022-08-01T11:01:34;0.50;;;0.50;;
23206;SDS011;11773;52.570;13.052;2022-08-01T11:04:08;0.50;;;0.50;;
23206;SDS011;11773;52.570;13.052;2022-08-01T11:09:40;0.60;;;0.60;;
23206;SDS011;11773;52.570;13.052;2022-08-01T11:12:17;0.40;;;0.40;;
23206;SDS011;11773;52.570;13.052;2022-08-01T11:17:43;0.50;;;0.50;;
23206;SDS011;11773;52.570;13.052;2022-08-01T11:20:30;0.57;;;0.57;;
23206;SDS011;11773;52.570;13.052;2022-08-01T11:28:17;0.60;;;0.60;;
23206;SDS011;11773;52.570;13.052;2022-08-01T11:31:24;0.43;;;0.43;;
23206;SDS011;11773;52.570;13.052;2022-08-01T11:41:39;0.53;;;0.40;;
23206;SDS011;11773;52.570;13.052;2022-08-01T11:44:15;0.50;;;0.50;;
23206;SDS011;11773;52.570;13.052;2022-08-01T11:47:01;0.50;;;0.50;;
23206;SDS011;11773;52.570;13.052;2022-08-01T11:52:18;0.50;;;0.50;;
23206;SDS011;11773;52.570;13.052;2022-08-01T11:54:54;0.40;;;0.40;;
23206;SDS011;11773;52.570;13.052;2022-08-01T11:57:28;0.40;;;0.40;;
23206;SDS011;11773;52.570;13.052;2022-08-01T12:00:12;0.33;;;0.33;;
23206;SDS011;11773;52.570;13.052;2022-08-01T12:02:45;1.70;;;0.83;;
23206;SDS011;11773;52.570;13.052;2022-08-01T12:05:18;0.60;;;0.60;;
23206;SDS011;11773;52.570;13.052;2022-08-01T12:07:51;0.40;;;0.40;;
23206;SDS011;11773;52.570;13.052;2022-08-01T12:10:23;0.60;;;0.60;;
23206;SDS011;11773;52.570;13.052;2022-08-01T12:13:00;0.30;;;0.30;;
23206;SDS011;11773;52.570;13.052;2022-08-01T12:15:34;0.50;;;0.50;;
23206;SDS011;11773;52.570;13.052;2022-08-01T12:18:06;0.50;;;0.30;;
23206;SDS011;11773;52.570;13.052;2022-08-01T12:20:37;0.50;;;0.50;;
23206;SDS011;11773;52.570;13.052;2022-08-01T12:23:11;0.40;;;0.40;;
23206;SDS011;11773;52.570;13.052;2022-08-01T12:25:43;0.60;;;0.60;;
23206;SDS011;11773;52.570;13.052;2022-08-01T12:28:15;0.40;;;0.40;;
23206;SDS011;11773;52.570;13.052;2022-08-01T12:30:46;0.67;;;0.67;;
23206;SDS011;11773;52.570;13.052;2022-08-01T12:33:18;0.50;;;0.50;;
23206;SDS011;11773;52.570;13.052;2022-08-01T12:35:50;0.37;;;0.37;;
23206;SDS011;11773;52.570;13.052;2022-08-01T12:38:20;0.43;;;0.43;;
23206;SDS011;11773;52.570;13.052;2022-08-01T12:40:51;0.60;;;0.50;;
23206;SDS011;11773;52.570;13.052;2022-08-01T12:43:22;0.70;;;0.47;;
23206;SDS011;11773;52.570;13.052;2022-08-01T12:45:54;1.90;;;0.47;;
23206;SDS011;11773;52.570;13.052;2022-08-01T12:48:27;0.40;;;0.40;;
23206;SDS011;11773;52.570;13.052;2022-08-01T12:50:59;0.70;;;0.70;;
23206;SDS011;11773;52.570;13.052;2022-08-01T12:53:33;0.30;;;0.30;;
23206;SDS011;11773;52.570;13.052;2022-08-01T12:56:05;0.40;;;0.40;;
23206;SDS011;11773;52.570;13.052;2022-08-01T12:58:35;0.40;;;0.40;;
23206;SDS011;11773;52.570;13.052;2022-08-01T13:01:05;0.50;;;0.50;;
23206;SDS011;11773;52.570;13.052;2022-08-01T13:03:39;0.50;;;0.50;;
23206;SDS011;11773;52.570;13.052;2022-08-01T13:06:16;0.40;;;0.40;;
23206;SDS011;11773;52.570;13.052;2022-08-01T13:08:44;0.33;;;0.33;;
23206;SDS011;11773;52.570;13.052;2022-08-01T13:11:14;0.40;;;0.40;;
23206;SDS011;11773;52.570;13.052;2022-08-01T13:13:46;0.30;;;0.30;;
23206;SDS011;11773;52.570;13.052;2022-08-01T13:16:19;0.30;;;0.30;;
23206;SDS011;11773;52.570;13.052;2022-08-01T13:18:56;0.30;;;0.30;;
23206;SDS011;11773;52.570;13.052;2022-08-01T13:21:26;0.40;;;0.40;;
23206;SDS011;11773;52.570;13.052;2022-08-01T13:24:06;0.20;;;0.20;;
23206;SDS011;11773;52.570;13.052;2022-08-01T13:29:19;0.33;;;0.33;;
23206;SDS011;11773;52.570;13.052;2022-08-01T13:31:51;0.20;;;0.20;;
23206;SDS011;11773;52.570;13.052;2022-08-01T13:34:31;0.40;;;0.30;;
23206;SDS011;11773;52.570;13.052;2022-08-01T13:37:02;0.40;;;0.40;;
23206;SDS011;11773;52.570;13.052;2022-08-01T13:39:31;0.30;;;0.30;;
23206;SDS011;11773;52.570;13.052;2022-08-01T13:42:08;0.37;;;0.37;;
23206;SDS011;11773;52.570;13.052;2022-08-01T13:44:42;0.37;;;0.30;;
23206;SDS011;11773;52.570;13.052;2022-08-01T13:47:12;0.40;;;0.40;;
23206;SDS011;11773;52.570;13.052;2022-08-01T13:49:43;0.30;;;0.30;;
23206;SDS011;11773;52.570;13.052;2022-08-01T13:52:12;0.37;;;0.37;;
23206;SDS011;11773;52.570;13.052;2022-08-01T13:54:42;0.30;;;0.30;;
23206;SDS011;11773;52.570;13.052;2022-08-01T13:57:11;0.30;;;0.30;;
23206;SDS011;11773;52.570;13.052;2022-08-01T13:59:42;0.40;;;0.40;;
23206;SDS011;11773;52.570;13.052;2022-08-01T14:02:12;0.40;;;0.40;;
23206;SDS011;11773;52.570;13.052;2022-08-01T14:04:41;0.40;;;0.40;;
23206;SDS011;11773;52.570;13.052;2022-08-01T14:07:11;0.30;;;0.30;;
23206;SDS011;11773;52.570;13.052;2022-08-01T14:09:41;0.30;;;0.30;;
23206;SDS011;11773;52.570;13.052;2022-08-01T14:12:12;0.30;;;0.30;;
23206;SDS011;11773;52.570;13.052;2022-08-01T14:14:42;0.20;;;0.20;;
23206;SDS011;11773;52.570;13.052;2022-08-01T14:17:11;0.27;;;0.27;;
23206;SDS011;11773;52.570;13.052;2022-08-01T14:19:41;0.20;;;0.20;;
23206;SDS011;11773;52.570;13.052;2022-08-01T14:22:12;0.30;;;0.30;;
23206;SDS011;11773;52.570;13.052;2022-08-01T14:24:41;0.30;;;0.30;;
23206;SDS011;11773;52.570;13.052;2022-08-01T14:27:11;0.20;;;0.20;;
23206;SDS011;11773;52.570;13.052;2022-08-01T14:29:41;0.40;;;0.40;;
23206;SDS011;11773;52.570;13.052;2022-08-01T14:32:13;0.40;;;0.40;;
23206;SDS011;11773;52.570;13.052;2022-08-01T14:34:43;0.20;;;0.20;;
23206;SDS011;11773;52.570;13.052;2022-08-01T14:37:13;0.33;;;0.33;;
23206;SDS011;11773;52.570;13.052;2022-08-01T14:39:43;0.70;;;0.50;;
23206;SDS011;11773;52.570;13.052;2022-08-01T14:42:14;0.33;;;0.33;;
23206;SDS011;11773;52.570;13.052;2022-08-01T14:44:43;0.50;;;0.50;;
23206;SDS011;11773;52.570;13.052;2022-08-01T14:47:15;0.30;;;0.30;;
23206;SDS011;11773;52.570;13.052;2022-08-01T14:49:46;0.30;;;0.30;;
23206;SDS011;11773;52.570;13.052;2022-08-01T14:52:17;0.20;;;0.20;;
23206;SDS011;11773;52.570;13.052;2022-08-01T14:54:46;0.20;;;0.20;;
23206;SDS011;11773;52.570;13.052;2022-08-01T14:57:16;0.33;;;0.33;;
23206;SDS011;11773;52.570;13.052;2022-08-01T14:59:46;0.30;;;0.30;;
23206;SDS011;11773;52.570;13.052;2022-08-01T15:02:15;0.30;;;0.30;;
23206;SDS011;11773;52.570;13.052;2022-08-01T15:04:46;0.30;;;0.30;;
23206;SDS011;11773;52.570;13.052;2022-08-01T15:07:17;0.30;;;0.30;;
23206;SDS011;11773;52.570;13.052;2022-08-01T15:09:47;0.50;;;0.50;;
23206;SDS011;11773;52.570;13.052;2022-08-01T15:12:16;0.40;;;0.40;;
23206;SDS011;11773;52.570;13.052;2022-08-01T15:14:46;0.40;;;0.40;;
23206;SDS011;11773;52.570;13.052;2022-08-01T15:17:22;0.60;;;0.30;;
23206;SDS011;11773;52.570;13.052;2022-08-01T15:19:59;0.30;;;0.30;;
23206;SDS011;11773;52.570;13.052;2022-08-01T15:22:33;0.30;;;0.30;;
23206;SDS011;11773;52.570;13.052;2022-08-01T15:25:02;0.40;;;0.40;;
23206;SDS011;11773;52.570;13.052;2022-08-01T15:27:32;0.30;;;0.30;;
23206;SDS011;11773;52.570;13.052;2022-08-01T15:30:02;0.37;;;0.30;;
23206;SDS011;11773;52.570;13.052;2022-08-01T15:32:32;0.50;;;0.50;;
23206;SDS011;11773;52.570;13.052;2022-08-01T15:35:02;0.50;;;0.47;;